Time;durP1;ratioP1;P1;durP2;ratioP2;P2;SDS_P1;SDS_P2;PMS_P1;PMS_P2;Temp;Humidity;BMP_temperature;BMP_pressure;BME280_temperature;BME280_humidity;BME280_pressure;Samples;Min_cycle;Max_cycle;Signal;HPM_P1;HPM_P2
2021/10/01 00:01:12;;;;;;;4.90;2.00;;;12.50;99.90;;;;;;4932884;29;20385;-79
2021/10/01 00:03:38;;;;;;;4.82;2.05;;;12.40;99.90;;;;;;4932810;29;20020;-79
2021/10/01 00:06:04;;;;;;;5.13;2.25;;;12.40;99.90;;;;;;4932033;29;20039;-79
2021/10/01 00:08:29;;;;;;;5.97;1.80;;;12.40;99.90;;;;;;4932927;29;20034;-79
2021/10/01 00:11:01;;;;;;;5.88;1.58;;;12.40;99.90;;;;;;4932844;29;20035;-78
2021/10/01 00:13:28;;;;;;;3.53;1.70;;;12.30;99.90;;;;;;4932666;29;20051;-79
2021/10/01 00:15:58;;;;;;;4.47;1.95;;;12.30;99.90;;;;;;4934095;29;20114;-79
2021/10/01 00:18:24;;;;;;;1.40;1.30;;;12.30;99.90;;;;;;4935288;29;20463;-78
2021/10/01 00:20:49;;;;;;;3.20;1.63;;;12.30;99.90;;;;;;4932011;29;20066;-79
2021/10/01 00:23:15;;;;;;;3.70;1.70;;;12.30;99.90;;;;;;4933888;29;20692;-79
2021/10/01 00:25:40;;;;;;;2.65;1.40;;;12.20;99.90;;;;;;4931806;29;20044;-79
2021/10/01 00:28:06;;;;;;;2.55;1.55;;;12.30;99.90;;;;;;4932466;29;20051;-79
2021/10/01 00:30:31;;;;;;;3.90;2.20;;;12.30;99.90;;;;;;4934130;29;20032;-79
2021/10/01 00:32:58;;;;;;;3.92;1.60;;;12.30;99.90;;;;;;4932859;29;20554;-79
2021/10/01 00:35:24;;;;;;;2.80;1.95;;;12.40;99.90;;;;;;4932874;29;20469;-79
2021/10/01 00:37:50;;;;;;;4.35;1.98;;;12.40;99.90;;;;;;4932152;29;20035;-78
2021/10/01 00:40:15;;;;;;;3.40;1.95;;;12.40;99.90;;;;;;4932058;29;20024;-78
2021/10/01 00:42:41;;;;;;;2.80;1.73;;;12.40;99.90;;;;;;4932554;29;20075;-79
2021/10/01 00:45:07;;;;;;;4.63;2.00;;;12.40;99.90;;;;;;4932044;29;20038;-79
2021/10/01 00:47:33;;;;;;;3.33;1.50;;;12.40;99.90;;;;;;4931962;29;20036;-78
2021/10/01 00:49:59;;;;;;;3.38;1.40;;;12.50;99.90;;;;;;4932210;29;20361;-79
2021/10/01 00:52:24;;;;;;;3.83;1.30;;;12.50;99.90;;;;;;4934913;29;20083;-79
2021/10/01 00:54:52;;;;;;;4.25;1.60;;;12.50;99.90;;;;;;4936446;29;20023;-79
2021/10/01 00:57:19;;;;;;;4.15;1.63;;;12.50;99.90;;;;;;4937140;29;20027;-79
2021/10/01 00:59:45;;;;;;;2.35;1.27;;;12.50;99.90;;;;;;4935738;29;20476;-79
2021/10/01 01:02:10;;;;;;;4.53;1.65;;;12.50;99.90;;;;;;4934839;29;20070;-79
2021/10/01 01:04:41;;;;;;;5.13;1.88;;;12.50;99.90;;;;;;4935839;29;20020;-78
2021/10/01 01:07:49;;;;;;;2.53;1.52;;;12.50;99.90;;;;;;4936692;29;20130;-79
2021/10/01 01:10:31;;;;;;;4.40;1.63;;;12.50;99.90;;;;;;4935581;29;20446;-79
2021/10/01 01:13:22;;;;;;;2.95;1.73;;;12.50;99.90;;;;;;4935193;29;20076;-78
2021/10/01 01:16:01;;;;;;;5.03;1.80;;;12.50;99.90;;;;;;4934978;29;20376;-78
2021/10/01 01:18:35;;;;;;;7.68;1.55;;;12.50;99.90;;;;;;4935290;29;20032;-79
2021/10/01 01:21:03;;;;;;;2.55;1.38;;;12.50;99.90;;;;;;4935040;29;20015;-79
2021/10/01 01:23:54;;;;;;;3.92;1.73;;;12.50;99.90;;;;;;4935057;29;20019;-78
2021/10/01 01:26:35;;;;;;;3.05;1.40;;;12.50;99.90;;;;;;4935509;29;20187;-79
2021/10/01 01:29:27;;;;;;;3.35;1.50;;;12.50;99.90;;;;;;4934143;29;20058;-78
2021/10/01 01:31:55;;;;;;;3.40;1.60;;;12.50;99.90;;;;;;4935082;29;20030;-79
2021/10/01 01:34:32;;;;;;;2.05;1.52;;;12.50;99.90;;;;;;4936639;29;20032;-78
2021/10/01 01:37:01;;;;;;;5.53;2.20;;;12.40;99.90;;;;;;4935392;29;20036;-79
2021/10/01 01:39:28;;;;;;;3.13;1.20;;;12.40;99.90;;;;;;4935295;29;20031;-78
2021/10/01 01:41:56;;;;;;;2.78;1.30;;;12.40;99.90;;;;;;4936041;29;20145;-78
2021/10/01 01:44:27;;;;;;;4.22;1.80;;;12.30;99.90;;;;;;4935866;29;20028;-78
2021/10/01 01:46:55;;;;;;;1.80;1.23;;;12.30;99.90;;;;;;4935983;29;20071;-78
2021/10/01 01:49:21;;;;;;;2.65;1.25;;;12.30;99.90;;;;;;4936223;29;20182;-78
2021/10/01 01:51:48;;;;;;;3.85;1.23;;;12.30;99.90;;;;;;4934422;29;20031;-79
2021/10/01 01:54:16;;;;;;;2.83;1.50;;;12.40;99.90;;;;;;4935987;29;20032;-78
2021/10/01 01:56:42;;;;;;;5.45;1.55;;;12.40;99.90;;;;;;4934753;29;20027;-79
2021/10/01 01:59:09;;;;;;;4.93;1.60;;;12.40;99.90;;;;;;4935027;29;20020;-78
2021/10/01 02:01:35;;;;;;;3.17;1.63;;;12.40;99.90;;;;;;4934823;29;20114;-78
2021/10/01 02:04:01;;;;;;;4.13;1.55;;;12.40;99.90;;;;;;4933765;29;20024;-79
2021/10/01 02:06:29;;;;;;;2.47;1.63;;;12.50;99.90;;;;;;4934316;29;20115;-78
2021/10/01 02:08:56;;;;;;;2.35;1.10;;;12.50;99.90;;;;;;4934080;29;20031;-79
2021/10/01 02:11:23;;;;;;;3.22;1.40;;;12.50;99.90;;;;;;4934273;29;20036;-79
2021/10/01 02:13:51;;;;;;;3.80;1.52;;;12.50;99.90;;;;;;4935665;29;20028;-78
2021/10/01 02:16:18;;;;;;;2.75;1.48;;;12.60;99.90;;;;;;4934175;29;20028;-79
2021/10/01 02:18:47;;;;;;;3.25;1.30;;;12.60;99.90;;;;;;4933518;29;20028;-78
2021/10/01 02:21:15;;;;;;;3.90;1.58;;;12.50;99.90;;;;;;4934257;29;20031;-78
2021/10/01 02:23:41;;;;;;;2.67;1.30;;;12.60;99.90;;;;;;4934322;29;20046;-78
2021/10/01 02:28:59;;;;;;;2.85;1.20;;;12.60;99.90;;;;;;4934779;29;20090;-78
2021/10/01 02:31:46;;;;;;;3.33;1.48;;;12.60;99.90;;;;;;4935751;29;20028;-78
2021/10/01 02:34:13;;;;;;;2.90;1.30;;;12.60;99.90;;;;;;4933580;29;20046;-79
2021/10/01 02:36:38;;;;;;;3.13;1.60;;;12.60;99.90;;;;;;4935050;29;20050;-79
2021/10/01 02:39:04;;;;;;;3.33;1.40;;;12.60;99.90;;;;;;4933335;29;20472;-79
2021/10/01 02:41:30;;;;;;;3.85;1.90;;;12.60;99.90;;;;;;4933782;29;20086;-78
2021/10/01 02:43:55;;;;;;;5.35;1.02;;;12.60;99.90;;;;;;4934757;29;20102;-79
2021/10/01 02:46:21;;;;;;;4.53;1.73;;;12.60;99.90;;;;;;4933258;29;20036;-79
2021/10/01 02:48:46;;;;;;;4.07;1.30;;;12.60;99.90;;;;;;4934944;29;20024;-79
2021/10/01 02:51:17;;;;;;;2.95;1.80;;;12.60;99.90;;;;;;4934858;29;20468;-79
2021/10/01 02:54:05;;;;;;;2.33;1.50;;;12.60;99.90;;;;;;4933204;29;20027;-79
2021/10/01 02:56:40;;;;;;;3.53;1.73;;;12.60;99.90;;;;;;4933896;29;20042;-78
2021/10/01 02:59:06;;;;;;;4.40;1.50;;;12.60;99.90;;;;;;4933373;29;20024;-78
2021/10/01 03:01:34;;;;;;;3.08;1.50;;;12.60;99.90;;;;;;4934664;29;20496;-78
2021/10/01 03:04:07;;;;;;;3.97;1.35;;;12.60;99.90;;;;;;4933297;29;20038;-79
2021/10/01 03:06:35;;;;;;;2.67;1.20;;;12.60;99.90;;;;;;4934836;29;20455;-79
2021/10/01 03:09:05;;;;;;;2.40;1.30;;;12.60;99.90;;;;;;4933710;29;20106;-78
2021/10/01 03:11:32;;;;;;;2.60;1.35;;;12.70;99.90;;;;;;4934784;29;20554;-78
2021/10/01 03:14:01;;;;;;;1.75;1.33;;;12.70;99.90;;;;;;4932569;29;20476;-78
2021/10/01 03:16:27;;;;;;;3.83;1.58;;;12.70;99.90;;;;;;4933182;29;20020;-78
2021/10/01 03:18:55;;;;;;;5.10;1.30;;;12.60;99.90;;;;;;4933243;29;20028;-78
2021/10/01 03:21:23;;;;;;;3.53;1.20;;;12.60;99.90;;;;;;4933410;29;20031;-78
2021/10/01 03:23:49;;;;;;;2.17;1.10;;;12.70;99.90;;;;;;4934153;29;20023;-78
2021/10/01 03:26:18;;;;;;;4.55;1.40;;;12.60;99.90;;;;;;4933053;29;20507;-78
2021/10/01 03:28:43;;;;;;;2.55;1.20;;;12.60;99.90;;;;;;4932289;29;20194;-78
2021/10/01 03:31:10;;;;;;;1.98;1.20;;;12.60;99.90;;;;;;4932899;29;20473;-78
2021/10/01 03:33:35;;;;;;;4.20;1.42;;;12.60;99.90;;;;;;4933202;29;20024;-78
2021/10/01 03:36:02;;;;;;;1.45;1.33;;;12.50;99.90;;;;;;4933329;29;20468;-78
2021/10/01 03:38:27;;;;;;;3.40;1.75;;;12.50;99.90;;;;;;4934461;29;20028;-78
2021/10/01 03:40:53;;;;;;;2.78;1.48;;;12.50;99.90;;;;;;4934518;29;20107;-78
2021/10/01 03:43:24;;;;;;;2.35;1.60;;;12.50;99.90;;;;;;4932510;29;20027;-78
2021/10/01 03:45:50;;;;;;;2.30;1.40;;;12.50;99.90;;;;;;4934356;29;20024;-78
2021/10/01 03:48:16;;;;;;;2.78;1.45;;;12.60;99.90;;;;;;4934153;29;20054;-78
2021/10/01 03:50:42;;;;;;;2.90;1.42;;;12.60;99.90;;;;;;4932524;29;20457;-78
2021/10/01 03:53:08;;;;;;;2.95;1.50;;;12.60;99.90;;;;;;4934046;29;20032;-78
2021/10/01 03:55:34;;;;;;;3.13;1.50;;;12.60;99.90;;;;;;4934546;29;20028;-79
2021/10/01 03:58:00;;;;;;;2.45;1.15;;;12.60;99.90;;;;;;4932227;29;20082;-79
2021/10/01 04:00:25;;;;;;;6.38;1.52;;;12.60;99.90;;;;;;4933317;29;20384;-79
2021/10/01 04:02:51;;;;;;;3.03;1.40;;;12.60;99.90;;;;;;4934042;29;20024;-79
2021/10/01 04:05:17;;;;;;;3.97;1.38;;;12.60;99.90;;;;;;4931886;29;20031;-79
2021/10/01 04:07:43;;;;;;;2.10;1.45;;;12.50;99.90;;;;;;4932837;29;20191;-79
2021/10/01 04:10:10;;;;;;;2.10;1.20;;;12.50;99.90;;;;;;4933151;29;20086;-79
2021/10/01 04:12:36;;;;;;;2.72;1.42;;;12.40;99.90;;;;;;4932280;29;20034;-79
2021/10/01 04:15:03;;;;;;;3.13;1.38;;;12.40;99.90;;;;;;4932735;29;20026;-79
2021/10/01 04:17:28;;;;;;;1.90;1.25;;;12.40;99.90;;;;;;4932273;29;20032;-79
2021/10/01 04:19:54;;;;;;;4.95;1.50;;;12.30;99.90;;;;;;4930738;29;20092;-79
2021/10/01 04:22:20;;;;;;;1.48;1.25;;;12.40;99.90;;;;;;4932945;29;20032;-78
2021/10/01 04:24:46;;;;;;;1.83;1.15;;;12.30;99.90;;;;;;4932130;29;20024;-79
2021/10/01 04:27:11;;;;;;;5.22;1.42;;;12.40;99.90;;;;;;4935718;29;20035;-78
2021/10/01 04:29:37;;;;;;;4.82;1.50;;;12.40;99.90;;;;;;4936319;29;20044;-78
2021/10/01 04:32:05;;;;;;;2.83;1.50;;;12.40;99.90;;;;;;4935758;29;20081;-78
2021/10/01 04:34:36;;;;;;;4.40;1.95;;;12.40;99.90;;;;;;4936392;29;20148;-78
2021/10/01 04:37:02;;;;;;;5.03;2.17;;;12.30;99.90;;;;;;4936020;29;20042;-79
2021/10/01 04:39:27;;;;;;;1.90;1.40;;;12.30;99.90;;;;;;4935561;29;20024;-79
2021/10/01 04:41:53;;;;;;;3.67;1.65;;;12.20;99.90;;;;;;4936412;29;20059;-79
2021/10/01 04:44:19;;;;;;;3.35;1.42;;;12.20;99.90;;;;;;4936477;29;20024;-79
2021/10/01 04:46:44;;;;;;;3.10;1.80;;;12.10;99.90;;;;;;4935583;29;20488;-79
2021/10/01 04:49:11;;;;;;;3.97;1.63;;;12.10;99.90;;;;;;4935575;29;20433;-79
2021/10/01 04:51:37;;;;;;;2.83;1.50;;;12.10;99.90;;;;;;4936067;29;20035;-79
2021/10/01 04:54:03;;;;;;;2.85;1.38;;;12.10;99.90;;;;;;4935291;29;20020;-79
2021/10/01 04:56:29;;;;;;;4.57;1.95;;;12.00;99.90;;;;;;4936106;29;20381;-79
2021/10/01 04:58:54;;;;;;;2.20;1.50;;;12.00;99.90;;;;;;4935675;29;20127;-79
2021/10/01 05:01:20;;;;;;;2.25;1.30;;;12.00;99.90;;;;;;4936512;29;20035;-78
2021/10/01 05:03:46;;;;;;;3.85;1.77;;;11.90;99.90;;;;;;4920066;29;20074;-78
2021/10/01 05:06:11;;;;;;;2.85;1.20;;;11.90;99.90;;;;;;4935434;29;20440;-78
2021/10/01 05:08:37;;;;;;;1.95;1.30;;;11.90;99.90;;;;;;4936209;29;20031;-78
2021/10/01 05:11:03;;;;;;;3.80;1.70;;;11.90;99.90;;;;;;4935331;29;20119;-79
2021/10/01 05:13:28;;;;;;;2.17;1.40;;;11.90;99.90;;;;;;4935867;29;20388;-80
2021/10/01 05:15:54;;;;;;;4.13;1.40;;;11.90;99.90;;;;;;4934830;29;20111;-78
2021/10/01 05:18:22;;;;;;;2.05;1.17;;;11.90;99.90;;;;;;4935271;29;20461;-78
2021/10/01 05:20:47;;;;;;;2.75;1.35;;;11.90;99.90;;;;;;4936702;29;20024;-78
2021/10/01 05:23:13;;;;;;;2.33;1.67;;;11.90;99.90;;;;;;4934568;29;20450;-78
2021/10/01 05:25:39;;;;;;;4.10;1.80;;;11.80;99.90;;;;;;4936572;29;20095;-79
2021/10/01 05:28:04;;;;;;;4.40;1.85;;;11.80;99.90;;;;;;4934386;29;20043;-79
2021/10/01 05:30:30;;;;;;;3.95;1.50;;;11.80;99.90;;;;;;4935729;29;20440;-78
2021/10/01 05:32:56;;;;;;;2.88;1.48;;;11.80;99.90;;;;;;4934404;29;20709;-78
2021/10/01 05:35:21;;;;;;;3.75;1.60;;;11.80;99.90;;;;;;4947165;29;20028;-78
2021/10/01 05:37:47;;;;;;;3.80;1.80;;;11.80;99.90;;;;;;4947263;28;20469;-78
2021/10/01 05:40:13;;;;;;;3.95;1.70;;;11.80;99.90;;;;;;4950326;28;20035;-78
2021/10/01 05:42:39;;;;;;;3.60;1.55;;;11.80;99.90;;;;;;4928647;29;20043;-80
2021/10/01 05:45:06;;;;;;;3.65;1.60;;;11.80;99.90;;;;;;4916272;29;20375;-78
2021/10/01 05:47:32;;;;;;;5.78;1.60;;;11.80;99.90;;;;;;4928519;29;20037;-82
2021/10/01 05:50:03;;;;;;;5.80;1.90;;;11.80;99.90;;;;;;4935047;29;20393;-78
2021/10/01 05:54:56;;;;;;;2.83;1.25;;;11.80;99.90;;;;;;4935557;29;20042;-79
2021/10/01 05:57:22;;;;;;;2.58;1.40;;;11.80;99.90;;;;;;4935675;29;20023;-79
2021/10/01 05:59:48;;;;;;;2.13;1.20;;;11.80;99.90;;;;;;4934779;29;20027;-77
2021/10/01 06:02:17;;;;;;;2.40;1.55;;;11.80;99.90;;;;;;4934825;29;20035;-78
2021/10/01 06:04:44;;;;;;;2.88;1.60;;;11.80;99.90;;;;;;4933677;29;20094;-78
2021/10/01 06:07:11;;;;;;;2.80;1.13;;;11.80;99.90;;;;;;4934230;29;20035;-78
2021/10/01 06:09:41;;;;;;;2.90;1.60;;;11.80;99.90;;;;;;4934556;29;20464;-78
2021/10/01 06:12:09;;;;;;;4.72;1.27;;;11.80;99.90;;;;;;4933886;29;20027;-78
2021/10/01 06:14:35;;;;;;;3.33;1.40;;;11.80;99.90;;;;;;4934868;29;20159;-78
2021/10/01 06:17:02;;;;;;;1.35;1.20;;;11.80;99.90;;;;;;4933812;29;20034;-81
2021/10/01 06:19:28;;;;;;;2.63;1.20;;;11.90;99.90;;;;;;4934974;29;20353;-78
2021/10/01 06:21:56;;;;;;;3.28;1.58;;;11.90;99.90;;;;;;4933818;29;20031;-78
2021/10/01 06:24:22;;;;;;;5.38;1.48;;;11.90;99.90;;;;;;4933746;29;20114;-80
2021/10/01 06:26:47;;;;;;;4.03;1.92;;;11.90;99.90;;;;;;4934016;29;20130;-81
2021/10/01 06:29:15;;;;;;;4.00;1.63;;;12.00;99.90;;;;;;4934049;29;20066;-82
2021/10/01 06:31:41;;;;;;;2.88;1.20;;;12.00;99.90;;;;;;4933351;29;20119;-80
2021/10/01 06:34:07;;;;;;;3.15;1.33;;;12.10;99.90;;;;;;4933787;29;20400;-82
2021/10/01 06:36:33;;;;;;;3.85;1.40;;;12.10;99.90;;;;;;4934285;29;20034;-80
2021/10/01 06:38:58;;;;;;;2.22;1.48;;;12.10;99.90;;;;;;4932579;29;20495;-83
2021/10/01 06:41:24;;;;;;;2.13;1.35;;;12.10;99.90;;;;;;4935587;29;20032;-82
2021/10/01 06:43:57;;;;;;;2.10;1.40;;;12.10;99.90;;;;;;4934033;29;20028;-80
2021/10/01 06:47:12;;;;;;;3.38;1.50;;;12.10;99.90;;;;;;4933143;29;20040;-79
2021/10/01 08:20:56;;;;;;;2.92;1.33;;;13.60;99.90;;;;;;4950402;29;20759;-80
2021/10/01 08:23:22;;;;;;;2.95;1.50;;;13.70;99.90;;;;;;4937800;29;20090;-88
2021/10/01 08:25:47;;;;;;;3.20;1.30;;;13.80;99.90;;;;;;4935764;29;20031;-78
2021/10/01 08:28:13;;;;;;;2.70;1.45;;;13.80;99.90;;;;;;4935379;29;20442;-83
2021/10/01 08:30:38;;;;;;;1.67;1.20;;;13.80;99.90;;;;;;4935698;29;20055;-78
2021/10/01 08:33:04;;;;;;;3.60;1.55;;;13.80;99.90;;;;;;4948223;29;20019;-82
2021/10/01 08:35:30;;;;;;;5.97;1.60;;;13.90;99.90;;;;;;4954557;29;20019;-79
2021/10/01 08:37:58;;;;;;;3.15;1.63;;;13.90;99.90;;;;;;4953749;28;20038;-81
2021/10/01 08:40:25;;;;;;;4.28;1.52;;;14.00;99.90;;;;;;4955841;29;20015;-83
2021/10/01 08:42:51;;;;;;;4.78;1.85;;;14.10;99.90;;;;;;4937547;28;20023;-79
2021/10/01 08:45:19;;;;;;;2.65;1.63;;;14.10;99.90;;;;;;4934703;29;20027;-79
2021/10/01 08:47:45;;;;;;;3.20;1.50;;;14.00;99.90;;;;;;4935359;29;20080;-79
2021/10/01 08:50:13;;;;;;;4.47;1.92;;;14.10;99.90;;;;;;4935638;29;20031;-83
2021/10/01 08:52:39;;;;;;;3.05;1.70;;;14.10;99.90;;;;;;4935540;29;20461;-83
2021/10/01 08:55:08;;;;;;;2.78;1.40;;;14.10;99.90;;;;;;4934060;29;20563;-79
2021/10/01 08:57:33;;;;;;;2.88;1.58;;;14.10;99.90;;;;;;4934736;29;20023;-81
2021/10/01 09:00:00;;;;;;;1.80;1.27;;;14.20;99.90;;;;;;4933993;29;20036;-80
2021/10/01 09:02:26;;;;;;;4.05;1.58;;;14.30;99.90;;;;;;4935271;29;20101;-80
2021/10/01 09:04:58;;;;;;;4.18;1.65;;;14.30;99.90;;;;;;4935290;29;20496;-80
2021/10/01 09:07:24;;;;;;;2.95;1.48;;;14.20;99.90;;;;;;4934803;29;20036;-80
2021/10/01 09:09:53;;;;;;;4.35;2.25;;;14.10;99.90;;;;;;4950443;29;20110;-80
2021/10/01 09:12:20;;;;;;;4.50;1.70;;;14.10;99.90;;;;;;4933354;29;20034;-82
2021/10/01 09:14:47;;;;;;;5.40;1.50;;;14.10;99.90;;;;;;4933696;29;20075;-78
2021/10/01 09:17:18;;;;;;;4.57;1.95;;;14.00;99.90;;;;;;4934578;29;20030;-79
2021/10/01 09:19:44;;;;;;;3.08;1.58;;;14.00;99.90;;;;;;4935868;29;20377;-79
2021/10/01 09:22:22;;;;;;;2.75;1.40;;;14.00;99.90;;;;;;4934153;29;20492;-79
2021/10/01 09:24:47;;;;;;;3.38;1.80;;;14.10;99.90;;;;;;4930047;29;20036;-80
2021/10/01 09:27:13;;;;;;;3.30;1.75;;;14.10;99.90;;;;;;4927277;29;20691;-81
2021/10/01 09:29:38;;;;;;;3.55;1.70;;;14.20;99.90;;;;;;4934588;29;20523;-79
2021/10/01 09:32:11;;;;;;;4.00;1.85;;;14.20;99.90;;;;;;4934688;29;20432;-81
2021/10/01 09:34:42;;;;;;;2.85;1.52;;;14.30;99.90;;;;;;4933826;29;20032;-79
2021/10/01 09:37:12;;;;;;;5.90;1.90;;;14.20;99.90;;;;;;4934473;29;20492;-78
2021/10/01 09:39:41;;;;;;;4.88;2.05;;;14.30;99.90;;;;;;4933042;29;20476;-79
2021/10/01 09:42:22;;;;;;;3.13;1.52;;;14.30;99.90;;;;;;4933227;29;20028;-81
2021/10/01 09:44:50;;;;;;;3.42;1.60;;;14.40;99.90;;;;;;4933344;29;20032;-83
2021/10/01 09:47:22;;;;;;;2.45;1.73;;;14.40;99.90;;;;;;4931504;29;20081;-80
2021/10/01 09:49:53;;;;;;;;;;;14.50;99.90;;;;;;4922097;29;20462;-82
2021/10/01 09:52:19;;;;;;;3.50;1.50;;;14.50;99.90;;;;;;4934661;29;19966;-79
2021/10/01 09:54:44;;;;;;;5.38;1.60;;;14.60;99.90;;;;;;4932385;29;20388;-81
2021/10/01 09:57:10;;;;;;;2.88;1.38;;;14.60;99.90;;;;;;4931647;29;20107;-81
2021/10/01 09:59:37;;;;;;;4.43;2.20;;;14.70;99.90;;;;;;4934535;29;20102;-83
2021/10/01 10:02:12;;;;;;;2.45;1.60;;;14.80;99.90;;;;;;4933317;29;20031;-80
2021/10/01 10:04:44;;;;;;;3.97;1.52;;;14.90;99.90;;;;;;4932401;29;20035;-79
2021/10/01 10:07:20;;;;;;;5.25;1.80;;;14.90;99.90;;;;;;4932458;29;20032;-79
2021/10/01 10:09:51;;;;;;;5.88;1.73;;;14.90;99.90;;;;;;4933417;29;20031;-80
2021/10/01 10:12:42;;;;;;;3.80;1.73;;;14.90;99.90;;;;;;4933234;29;20074;-80
2021/10/01 10:15:15;;;;;;;5.75;1.95;;;14.90;99.90;;;;;;4935082;29;20024;-83
2021/10/01 10:17:51;;;;;;;3.72;1.98;;;14.90;99.90;;;;;;4933548;29;20031;-85
2021/10/01 10:20:18;;;;;;;2.60;1.65;;;15.00;99.90;;;;;;4932508;29;20030;-80
2021/10/01 10:22:44;;;;;;;3.10;1.92;;;15.10;99.90;;;;;;4935398;29;20404;-85
2021/10/01 10:25:10;;;;;;;3.90;1.80;;;15.20;99.90;;;;;;4931061;29;20034;-81
2021/10/01 10:27:36;;;;;;;4.15;1.50;;;15.20;99.90;;;;;;4933393;29;20054;-81
2021/10/01 10:30:06;;;;;;;2.70;1.50;;;15.30;99.90;;;;;;4933528;29;20130;-84
2021/10/01 10:32:33;;;;;;;7.65;2.53;;;15.40;99.90;;;;;;4933286;29;20066;-84
2021/10/01 10:35:05;;;;;;;4.47;1.75;;;15.50;99.90;;;;;;4932184;29;20024;-84
2021/10/01 10:37:37;;;;;;;3.03;2.22;;;15.50;99.90;;;;;;4933392;29;20036;-82
2021/10/01 10:40:07;;;;;;;3.83;1.60;;;15.60;99.90;;;;;;4933297;29;20035;-86
2021/10/01 10:42:41;;;;;;;5.03;2.00;;;15.70;99.90;;;;;;4933292;29;20075;-81
2021/10/01 10:45:15;;;;;;;3.08;1.42;;;15.70;99.90;;;;;;4933485;29;20043;-87
2021/10/01 10:47:43;;;;;;;3.55;1.70;;;15.70;99.90;;;;;;4932867;29;20075;-86
2021/10/01 10:50:28;;;;;;;4.43;1.80;;;15.70;99.90;;;;;;4934010;29;20100;-87
2021/10/01 10:53:11;;;;;;;2.70;1.55;;;15.60;99.90;;;;;;4930386;29;20038;-81
2021/10/01 10:55:50;;;;;;;4.53;1.80;;;15.60;99.90;;;;;;4930814;29;20106;-80
2021/10/01 10:58:22;;;;;;;5.03;2.20;;;15.50;99.90;;;;;;4930279;29;20032;-80
2021/10/01 11:00:48;;;;;;;2.70;1.70;;;15.50;99.90;;;;;;4931574;29;20059;-79
2021/10/01 11:03:28;;;;;;;3.10;1.50;;;15.60;99.90;;;;;;4930602;29;20036;-77
2021/10/01 11:06:14;;;;;;;4.47;1.73;;;15.60;99.90;;;;;;4930080;29;20609;-80
2021/10/01 11:09:04;;;;;;;3.45;1.85;;;15.70;99.90;;;;;;4934926;29;20023;-79
2021/10/01 11:11:32;;;;;;;6.32;1.92;;;15.70;99.90;;;;;;4930331;29;20149;-78
2021/10/01 11:14:25;;;;;;;3.95;1.55;;;15.70;99.90;;;;;;4931259;29;20361;-78
2021/10/01 11:16:53;;;;;;;4.82;1.67;;;15.80;99.90;;;;;;4951595;28;20296;-80
2021/10/01 11:19:38;;;;;;;6.45;2.33;;;15.80;99.90;;;;;;4932823;29;20389;-79
2021/10/01 11:22:30;;;;;;;4.45;1.65;;;15.90;99.90;;;;;;4928308;29;20027;-81
2021/10/01 11:25:17;;;;;;;3.50;1.60;;;16.00;99.90;;;;;;4932094;29;20027;-79
2021/10/01 11:28:02;;;;;;;2.30;1.15;;;16.00;99.90;;;;;;4929527;29;20031;-78
2021/10/01 11:30:29;;;;;;;4.18;1.70;;;16.10;99.90;;;;;;4931325;29;20031;-79
2021/10/01 11:32:56;;;;;;;6.10;1.67;;;16.10;99.90;;;;;;4932385;29;20384;-81
2021/10/01 11:35:22;;;;;;;2.28;1.67;;;16.10;99.90;;;;;;4930384;29;20040;-79
2021/10/01 11:37:50;;;;;;;3.30;1.52;;;16.10;99.90;;;;;;4932755;29;20038;-81
2021/10/01 11:40:25;;;;;;;2.88;1.80;;;16.10;99.90;;;;;;4931353;29;20033;-77
2021/10/01 11:42:56;;;;;;;2.35;1.63;;;16.10;99.90;;;;;;4930180;29;20039;-76
2021/10/01 11:45:24;;;;;;;3.30;1.42;;;16.10;99.90;;;;;;4931514;29;20038;-82
2021/10/01 11:47:57;;;;;;;2.85;1.40;;;16.10;99.90;;;;;;4930250;29;20504;-77
2021/10/01 11:50:31;;;;;;;2.95;1.70;;;16.10;99.90;;;;;;4932973;29;20380;-79
2021/10/01 11:52:58;;;;;;;3.85;1.70;;;16.10;99.90;;;;;;4931143;29;20552;-76
2021/10/01 11:55:28;;;;;;;2.65;1.40;;;16.00;99.90;;;;;;4931096;29;20043;-77
2021/10/01 11:57:57;;;;;;;3.17;1.55;;;16.10;99.90;;;;;;4930794;29;20095;-80
2021/10/01 12:00:23;;;;;;;2.40;1.65;;;16.10;99.90;;;;;;4931486;29;20094;-77
2021/10/01 12:02:51;;;;;;;2.95;1.60;;;16.10;99.90;;;;;;4931697;29;20424;-82
2021/10/01 12:05:33;;;;;;;3.13;1.35;;;16.20;99.90;;;;;;4933167;29;20043;-78
2021/10/01 12:08:01;;;;;;;4.70;1.50;;;16.20;99.90;;;;;;4932018;29;20043;-79
2021/10/01 12:10:30;;;;;;;4.82;1.60;;;16.20;99.90;;;;;;4932498;29;20372;-81
2021/10/01 12:13:08;;;;;;;1.58;1.20;;;16.30;99.90;;;;;;4932056;29;20517;-82
2021/10/01 12:15:36;;;;;;;2.72;1.30;;;16.30;99.90;;;;;;4948262;29;20030;-83
2021/10/01 12:18:05;;;;;;;3.40;1.30;;;16.30;99.90;;;;;;4931200;29;20098;-80
2021/10/01 12:20:46;;;;;;;3.00;1.58;;;16.30;99.90;;;;;;4932228;29;20136;-81
2021/10/01 12:23:25;;;;;;;2.05;1.00;;;16.30;99.90;;;;;;4931222;29;20024;-81
2021/10/01 12:25:52;;;;;;;2.92;1.73;;;16.40;99.90;;;;;;4932225;29;20595;-80
2021/10/01 12:28:20;;;;;;;5.78;1.50;;;16.40;99.90;;;;;;4930931;29;20043;-83
2021/10/01 12:30:58;;;;;;;2.88;1.58;;;16.50;99.90;;;;;;4932221;29;20031;-79
2021/10/01 12:33:24;;;;;;;2.90;1.48;;;16.50;99.90;;;;;;4934177;29;20065;-84
2021/10/01 12:35:50;;;;;;;1.88;1.15;;;16.50;99.90;;;;;;4932576;29;20122;-86
2021/10/01 12:38:16;;;;;;;4.47;1.60;;;16.50;99.90;;;;;;4930893;29;20039;-79
2021/10/01 12:40:41;;;;;;;3.30;1.80;;;16.50;99.90;;;;;;4932052;29;20032;-87
2021/10/01 12:43:07;;;;;;;3.88;1.35;;;16.50;99.90;;;;;;4931708;29;20440;-78
2021/10/01 12:45:39;;;;;;;4.88;1.58;;;16.50;99.90;;;;;;4932362;29;20034;-84
2021/10/01 12:48:16;;;;;;;2.67;1.67;;;16.50;99.90;;;;;;4935585;29;20094;-84
2021/10/01 12:50:42;;;;;;;4.47;1.88;;;16.50;99.90;;;;;;4937233;29;20396;-82
2021/10/01 12:53:10;;;;;;;4.03;1.35;;;16.50;99.90;;;;;;4936133;29;20473;-84
2021/10/01 12:55:37;;;;;;;3.42;1.50;;;16.60;99.90;;;;;;4936335;29;20405;-80
2021/10/01 12:58:03;;;;;;;1.90;1.40;;;16.60;99.90;;;;;;4933123;29;20051;-81
2021/10/01 13:00:32;;;;;;;3.97;1.70;;;16.70;99.90;;;;;;4934193;29;20059;-80
2021/10/01 13:02:59;;;;;;;4.40;1.55;;;16.70;99.90;;;;;;4934668;29;20373;-80
2021/10/01 13:05:27;;;;;;;4.20;1.60;;;16.70;99.90;;;;;;4935187;29;20023;-81
2021/10/01 13:07:58;;;;;;;4.13;1.83;;;16.70;99.90;;;;;;4935398;29;20036;-80
2021/10/01 13:10:31;;;;;;;;;;;16.70;99.90;;;;;;4932775;29;20079;-81
2021/10/01 13:12:58;;;;;;;2.28;1.30;;;16.70;99.90;;;;;;4934746;29;20367;-82
2021/10/01 13:15:48;;;;;;;4.65;1.50;;;16.80;99.90;;;;;;4928603;29;20035;-81
2021/10/01 13:18:20;;;;;;;3.40;1.55;;;16.80;99.90;;;;;;4936005;29;20028;-81
2021/10/01 13:21:12;;;;;;;5.65;2.00;;;16.70;99.90;;;;;;4936057;29;20027;-84
2021/10/01 13:23:43;;;;;;;3.15;1.42;;;16.80;99.90;;;;;;4935403;29;20548;-82
2021/10/01 13:26:11;;;;;;;;;;;16.70;99.90;;;;;;4935223;29;20032;-81
2021/10/01 13:28:37;;;;;;;4.50;1.65;;;16.70;99.90;;;;;;4934354;29;19974;-80
2021/10/01 13:31:03;;;;;;;4.00;1.70;;;16.70;99.90;;;;;;4936197;29;20027;-82
2021/10/01 13:33:28;;;;;;;8.40;1.80;;;16.70;99.90;;;;;;4934718;29;20119;-82
2021/10/01 13:35:56;;;;;;;5.00;1.40;;;16.70;99.90;;;;;;4933866;29;20024;-81
2021/10/01 13:38:36;;;;;;;3.88;1.60;;;16.70;99.90;;;;;;4936544;29;20020;-82
2021/10/01 13:41:04;;;;;;;4.63;1.70;;;16.60;99.90;;;;;;4932960;29;20036;-80
2021/10/01 13:43:30;;;;;;;5.65;1.55;;;16.60;99.90;;;;;;4918700;29;20389;-78
2021/10/01 13:45:57;;;;;;;4.15;1.52;;;16.60;99.90;;;;;;4934236;29;20047;-77
2021/10/01 13:48:24;;;;;;;4.82;1.75;;;16.60;99.90;;;;;;4934553;29;20031;-78
2021/10/01 13:50:51;;;;;;;4.43;1.48;;;16.60;99.90;;;;;;4933993;29;20106;-77
2021/10/01 13:53:18;;;;;;;2.22;1.25;;;16.60;99.90;;;;;;4934410;29;20497;-78
2021/10/01 13:55:44;;;;;;;1.90;1.70;;;16.70;99.90;;;;;;4933854;29;20020;-78
2021/10/01 13:58:10;;;;;;;2.85;1.58;;;16.70;99.90;;;;;;4935119;29;20079;-81
2021/10/01 14:00:35;;;;;;;2.10;1.45;;;16.80;99.90;;;;;;4933539;29;20552;-84
2021/10/01 14:03:01;;;;;;;4.38;1.92;;;16.80;99.90;;;;;;4932984;29;20440;-79
2021/10/01 14:05:27;;;;;;;3.53;1.77;;;16.80;99.90;;;;;;4934671;29;20480;-84
2021/10/01 14:07:53;;;;;;;3.72;1.70;;;16.90;99.90;;;;;;4935516;29;20039;-80
2021/10/01 14:10:22;;;;;;;5.97;1.50;;;16.90;99.90;;;;;;4938748;28;20140;-82
2021/10/01 14:12:48;;;;;;;2.25;1.58;;;16.90;99.90;;;;;;4933938;29;20050;-83
2021/10/01 14:15:17;;;;;;;1.77;1.45;;;16.90;99.90;;;;;;4933052;29;20499;-79
2021/10/01 14:17:43;;;;;;;3.67;1.58;;;16.90;99.90;;;;;;4933774;29;20027;-79
2021/10/01 14:20:10;;;;;;;6.38;1.95;;;16.80;99.90;;;;;;4932738;29;20037;-80
2021/10/01 14:22:36;;;;;;;3.35;1.77;;;16.80;99.90;;;;;;4932924;29;20024;-81
2021/10/01 14:25:04;;;;;;;4.55;1.80;;;16.80;99.90;;;;;;4932666;29;20472;-84
2021/10/01 14:27:29;;;;;;;2.30;1.55;;;16.80;99.90;;;;;;4933948;29;20032;-81
2021/10/01 14:29:57;;;;;;;3.30;1.77;;;16.80;99.90;;;;;;4932822;29;20043;-77
2021/10/01 14:32:23;;;;;;;6.15;1.60;;;16.80;99.90;;;;;;4933602;29;20357;-78
2021/10/01 14:34:49;;;;;;;3.58;1.90;;;16.90;99.90;;;;;;4932415;29;20503;-77